createdAt,value
2023-01-27T00:01:08.592Z,-3.16
2023-01-27T00:03:35.670Z,-3.21
2023-01-27T00:06:05.902Z,-3.21
2023-01-27T00:08:32.705Z,-3.18
2023-01-27T00:11:19.628Z,-3.18
2023-01-27T00:13:46.569Z,-3.24
2023-01-27T00:16:13.663Z,-3.28
2023-01-27T00:18:40.645Z,-3.31
2023-01-27T00:21:26.145Z,-3.37
2023-01-27T00:24:11.684Z,-3.46
2023-01-27T00:26:38.785Z,-3.50
2023-01-27T00:29:05.617Z,-3.48
2023-01-27T00:31:51.564Z,-3.45
2023-01-27T00:34:18.761Z,-3.42
2023-01-27T00:36:45.524Z,-3.37
2023-01-27T00:39:14.192Z,-3.33
2023-01-27T00:41:43.492Z,-3.36
2023-01-27T00:44:12.591Z,-3.42
2023-01-27T00:46:40.906Z,-3.47
2023-01-27T00:49:09.368Z,-3.54
2023-01-27T00:51:37.516Z,-3.58
2023-01-27T00:54:04.874Z,-3.62
2023-01-27T00:56:31.942Z,-3.62
2023-01-27T00:58:58.699Z,-3.61
2023-01-27T01:01:25.591Z,-3.63
2023-01-27T01:03:52.713Z,-3.65
2023-01-27T01:06:19.834Z,-3.65
2023-01-27T01:08:48.230Z,-3.70
2023-01-27T01:11:16.698Z,-3.74
2023-01-27T01:13:44.940Z,-3.83
2023-01-27T01:16:22.107Z,-3.89
2023-01-27T01:18:49.206Z,-3.92
2023-01-27T01:21:16.096Z,-3.92
2023-01-27T01:23:45.420Z,-3.97
2023-01-27T01:26:14.221Z,-4.04
2023-01-27T01:28:41.129Z,-4.09
2023-01-27T01:31:10.260Z,-4.07
2023-01-27T01:33:37.190Z,-4.05
2023-01-27T01:36:08.804Z,-4.03
2023-01-27T01:38:36.432Z,-4.03
2023-01-27T01:41:04.666Z,-4.00
2023-01-27T01:43:31.636Z,-4.00
2023-01-27T01:45:59.480Z,-3.97
2023-01-27T01:48:49.529Z,-3.94
2023-01-27T01:51:19.713Z,-3.93
2023-01-27T01:53:53.628Z,-3.95
2023-01-27T01:56:26.431Z,-3.97
2023-01-27T01:58:54.992Z,-4.04
2023-01-27T02:01:24.551Z,-4.10
2023-01-27T02:03:54.611Z,-4.11
2023-01-27T02:06:21.178Z,-4.08
2023-01-27T02:08:48.702Z,-4.09
2023-01-27T02:11:15.762Z,-4.09
2023-01-27T02:13:42.711Z,-4.09
2023-01-27T02:23:57.235Z,-4.06
2023-01-27T02:26:32.674Z,-4.06
2023-01-27T02:29:06.353Z,-4.02
2023-01-27T02:31:34.954Z,-4.03
2023-01-27T02:34:09.333Z,-4.06
2023-01-27T02:36:58.218Z,-4.08
2023-01-27T02:39:31.501Z,-4.12
2023-01-27T02:41:59.578Z,-4.20
2023-01-27T02:44:27.889Z,-4.24
2023-01-27T02:46:56.558Z,-4.23
2023-01-27T02:49:25.125Z,-4.22
2023-01-27T02:51:53.523Z,-4.24
2023-01-27T02:54:25.266Z,-4.28
2023-01-27T02:56:53.576Z,-4.34
2023-01-27T02:59:24.495Z,-4.42
2023-01-27T03:01:53.056Z,-4.44
2023-01-27T03:04:21.385Z,-4.42
2023-01-27T03:06:49.939Z,-4.39
2023-01-27T03:09:18.939Z,-4.39
2023-01-27T03:12:06.365Z,-4.40
2023-01-27T03:14:55.228Z,-4.40
2023-01-27T03:17:42.134Z,-4.44
2023-01-27T03:20:11.482Z,-4.49
2023-01-27T03:22:39.620Z,-4.53
2023-01-27T03:25:08.920Z,-4.55
2023-01-27T03:27:37.209Z,-4.54
2023-01-27T03:30:38.159Z,-4.59
2023-01-27T03:33:15.615Z,-4.66
2023-01-27T03:36:23.551Z,-4.65
2023-01-27T03:39:11.362Z,-4.59
2023-01-27T03:41:58.285Z,-4.52
2023-01-27T03:44:46.524Z,-4.47
2023-01-27T03:47:14.651Z,-4.46
2023-01-27T03:49:42.945Z,-4.49
2023-01-27T03:52:11.067Z,-4.55
2023-01-27T03:54:39.777Z,-4.60
2023-01-27T03:57:08.445Z,-4.66
2023-01-27T03:59:37.910Z,-4.67
2023-01-27T04:02:25.292Z,-4.62
2023-01-27T04:05:13.033Z,-4.59
2023-01-27T04:07:43.867Z,-4.55
2023-01-27T04:10:12.020Z,-4.53
2023-01-27T04:12:41.235Z,-4.51
2023-01-27T04:15:09.812Z,-4.52
2023-01-27T04:17:42.153Z,-4.56
2023-01-27T04:20:11.566Z,-4.59
2023-01-27T04:22:40.343Z,-4.56
2023-01-27T04:25:11.633Z,-4.52
2023-01-27T04:27:43.584Z,-4.48
2023-01-27T04:30:12.345Z,-4.46
2023-01-27T04:32:40.455Z,-4.47
2023-01-27T04:35:08.996Z,-4.47
2023-01-27T04:37:37.786Z,-4.46
2023-01-27T04:40:07.322Z,-4.45
2023-01-27T04:42:35.566Z,-4.43
2023-01-27T04:45:04.504Z,-4.43
2023-01-27T04:47:33.250Z,-4.43
2023-01-27T04:50:01.405Z,-4.42
2023-01-27T04:52:29.902Z,-4.42
2023-01-27T04:54:58.285Z,-4.47
2023-01-27T04:57:28.144Z,-4.52
2023-01-27T04:59:56.581Z,-4.60
2023-01-27T06:08:35.027Z,-4.96
2023-01-27T06:11:01.867Z,-4.93
2023-01-27T06:13:29.063Z,-4.91
2023-01-27T06:15:56.137Z,-4.88
2023-01-27T06:18:23.471Z,-4.83
2023-01-27T06:20:50.216Z,-4.78
2023-01-27T06:23:17.771Z,-4.75
2023-01-27T06:25:46.061Z,-4.71
2023-01-27T06:28:27.153Z,-4.68
2023-01-27T06:30:56.655Z,-4.64
2023-01-27T06:33:23.699Z,-4.60
2023-01-27T06:36:00.821Z,-4.56
2023-01-27T06:38:27.459Z,-4.51
2023-01-27T06:40:56.456Z,-4.50
2023-01-27T06:43:24.348Z,-4.51
2023-01-27T06:45:51.571Z,-4.50
2023-01-27T06:48:18.636Z,-4.45
2023-01-27T06:50:45.315Z,-4.42
2023-01-27T06:53:12.107Z,-4.41
2023-01-27T06:55:41.077Z,-4.37
2023-01-27T06:58:09.089Z,-4.33
2023-01-27T07:00:38.774Z,-4.28
2023-01-27T07:03:05.907Z,-4.28
2023-01-27T07:05:33.155Z,-4.29
2023-01-27T07:07:59.986Z,-4.28
2023-01-27T07:10:26.923Z,-4.27
2023-01-27T07:13:04.395Z,-4.26
2023-01-27T07:15:31.593Z,-4.26
2023-01-27T07:17:59.861Z,-4.24
2023-01-27T07:20:28.238Z,-4.18
2023-01-27T07:23:03.167Z,-4.10
2023-01-27T07:25:33.608Z,-4.04
2023-01-27T07:28:00.742Z,-4.02
2023-01-27T07:30:34.916Z,-3.99
2023-01-27T07:33:08.988Z,-3.96
2023-01-27T07:35:36.623Z,-3.93
2023-01-27T07:38:04.044Z,-3.87
2023-01-27T07:40:30.715Z,-3.82
2023-01-27T07:42:58.766Z,-3.77
2023-01-27T07:45:27.496Z,-3.74
2023-01-27T07:48:00.387Z,-3.68
2023-01-27T07:50:27.176Z,-3.62
2023-01-27T07:52:53.798Z,-3.58
2023-01-27T07:55:20.382Z,-3.58
2023-01-27T07:57:47.095Z,-3.53
2023-01-27T08:00:15.141Z,-3.46
2023-01-27T08:02:43.043Z,-3.40
2023-01-27T08:05:09.651Z,-3.33
2023-01-27T08:07:36.834Z,-3.29
2023-01-27T08:10:04.027Z,-3.26
2023-01-27T08:12:31.192Z,-3.23
2023-01-27T08:14:58.820Z,-3.19
2023-01-27T08:17:28.717Z,-3.12
2023-01-27T08:19:55.782Z,-3.04
2023-01-27T08:22:24.571Z,-2.97
2023-01-27T08:24:51.464Z,-2.92
2023-01-27T08:27:18.361Z,-2.86
2023-01-27T08:29:45.026Z,-2.80
2023-01-27T08:32:14.173Z,-2.75
2023-01-27T08:34:42.737Z,-2.67
2023-01-27T08:37:09.368Z,-2.58
2023-01-27T08:39:36.820Z,-2.51
2023-01-27T08:42:04.438Z,-2.44
2023-01-27T08:44:31.299Z,-2.38
2023-01-27T08:46:57.942Z,-2.31
2023-01-27T08:49:24.980Z,-2.27
2023-01-27T08:51:51.708Z,-2.24
2023-01-27T08:54:18.441Z,-2.21
2023-01-27T08:56:45.039Z,-2.15
2023-01-27T08:59:11.664Z,-2.05
2023-01-27T09:01:38.873Z,-2.00
2023-01-27T09:04:10.390Z,-1.94
2023-01-27T09:06:38.644Z,-1.90
2023-01-27T09:09:10.971Z,-1.85
2023-01-27T09:11:47.633Z,-1.77
2023-01-27T09:14:14.573Z,-1.70
2023-01-27T09:16:41.252Z,-1.64
2023-01-27T09:19:08.229Z,-1.59
2023-01-27T09:21:35.229Z,-1.52
2023-01-27T09:24:02.057Z,-1.47
2023-01-27T09:26:29.762Z,-1.42
2023-01-27T09:28:56.710Z,-1.35
2023-01-27T09:31:25.790Z,-1.29
2023-01-27T09:33:52.496Z,-1.23
2023-01-27T09:36:20.745Z,-1.14
2023-01-27T09:38:55.712Z,-1.08
2023-01-27T09:41:59.975Z,-1.03
2023-01-27T09:44:38.954Z,-0.97
2023-01-27T09:47:15.915Z,-0.89
2023-01-27T09:50:09.331Z,-0.81
2023-01-27T09:52:57.610Z,-0.70
2023-01-27T09:55:45.036Z,-0.61
2023-01-27T09:58:24.775Z,-0.53
2023-01-27T12:12:32.793Z,1.27
2023-01-27T12:15:02.546Z,1.24
2023-01-27T12:17:35.590Z,1.23
2023-01-27T12:20:06.347Z,1.24
2023-01-27T12:22:38.639Z,1.23
2023-01-27T12:25:07.733Z,1.24
2023-01-27T12:27:40.561Z,1.25
2023-01-27T12:30:16.066Z,1.26
2023-01-27T12:32:47.161Z,1.24
2023-01-27T12:35:33.776Z,1.22
2023-01-27T12:38:26.698Z,1.22
2023-01-27T12:40:59.440Z,1.22
2023-01-27T12:43:26.171Z,1.19
2023-01-27T12:46:28.575Z,1.18
2023-01-27T12:49:07.573Z,1.16
2023-01-27T12:51:40.471Z,1.15
2023-01-27T12:54:21.298Z,1.14
2023-01-27T12:56:52.494Z,1.14
2023-01-27T12:59:20.965Z,1.13
2023-01-27T13:02:18.567Z,1.13
2023-01-27T13:04:53.841Z,1.13
2023-01-27T13:07:24.686Z,1.14
2023-01-27T13:10:03.368Z,1.14
2023-01-27T13:12:34.907Z,1.14
2023-01-27T13:15:21.235Z,1.14
2023-01-27T13:17:55.225Z,1.13
2023-01-27T13:20:26.041Z,1.12
2023-01-27T13:22:53.906Z,1.11
2023-01-27T13:25:22.987Z,1.10
2023-01-27T13:27:53.024Z,1.09
2023-01-27T13:30:26.862Z,1.08
2023-01-27T13:32:55.528Z,1.06
2023-01-27T13:35:37.679Z,1.04
2023-01-27T13:38:13.688Z,1.01
2023-01-27T13:40:45.159Z,0.98
2023-01-27T13:43:19.995Z,0.96
2023-01-27T13:46:20.972Z,0.93
2023-01-27T13:48:54.530Z,0.88
2023-01-27T13:51:24.355Z,0.85
2023-01-27T13:54:03.655Z,0.80
2023-01-27T13:56:41.728Z,0.76
2023-01-27T13:59:08.372Z,0.71
2023-01-27T14:02:08.060Z,0.67
2023-01-27T14:04:37.321Z,0.61
2023-01-27T14:07:07.946Z,0.57
2023-01-27T14:09:50.206Z,0.55
2023-01-27T14:12:21.715Z,0.51
2023-01-27T14:14:58.209Z,0.47
2023-01-27T14:17:34.989Z,0.42
2023-01-27T14:20:04.947Z,0.37
2023-01-27T14:22:34.655Z,0.32
2023-01-27T14:25:07.987Z,0.27
2023-01-27T14:27:37.155Z,0.22
2023-01-27T14:30:04.149Z,0.17
2023-01-27T14:32:31.072Z,0.10
2023-01-27T14:34:57.688Z,0.00
2023-01-27T14:37:27.947Z,-0.09
2023-01-27T14:40:00.317Z,-0.18
2023-01-27T14:42:26.866Z,-0.24
2023-01-27T14:45:15.950Z,-0.30
2023-01-27T14:47:45.693Z,-0.33
2023-01-27T14:50:21.589Z,-0.37
2023-01-27T14:52:51.298Z,-0.42
2023-01-27T14:55:18.129Z,-0.49
2023-01-27T14:57:47.247Z,-0.56
2023-01-27T15:00:20.642Z,-0.62
2023-01-27T15:03:01.439Z,-0.69
2023-01-27T15:05:37.677Z,-0.75
2023-01-27T15:08:16.905Z,-0.81
2023-01-27T15:10:51.271Z,-0.84
2023-01-27T15:13:50.510Z,-0.88
2023-01-27T15:16:19.536Z,-0.95
2023-01-27T15:18:53.734Z,-0.99
2023-01-27T15:21:32.428Z,-1.03
2023-01-27T15:24:17.986Z,-1.09
2023-01-27T15:26:45.338Z,-1.15
2023-01-27T15:29:14.888Z,-1.20
2023-01-27T15:31:42.664Z,-1.25
2023-01-27T15:34:19.511Z,-1.31
2023-01-27T15:37:02.501Z,-1.35
2023-01-27T15:39:41.004Z,-1.40
2023-01-27T15:42:12.319Z,-1.45
2023-01-27T15:44:40.289Z,-1.49
2023-01-27T15:47:11.470Z,-1.51
2023-01-27T15:49:42.466Z,-1.53
2023-01-27T15:52:12.030Z,-1.56
2023-01-27T15:54:39.693Z,-1.60
2023-01-27T15:57:06.289Z,-1.63
2023-01-27T15:59:49.851Z,-1.66
2023-01-27T16:02:27.371Z,-1.71
2023-01-27T18:15:33.326Z,-3.37
2023-01-27T18:18:01.233Z,-3.42
2023-01-27T18:20:32.034Z,-3.45
2023-01-27T18:22:58.796Z,-3.46
2023-01-27T18:25:25.382Z,-3.45
2023-01-27T18:27:53.306Z,-3.41
2023-01-27T18:30:20.952Z,-3.38
2023-01-27T18:32:53.297Z,-3.32
2023-01-27T18:35:25.780Z,-3.29
2023-01-27T18:37:57.848Z,-3.27
2023-01-27T18:40:35.002Z,-3.23
2023-01-27T18:43:03.499Z,-3.14
2023-01-27T18:45:30.257Z,-3.05
2023-01-27T18:47:57.158Z,-2.95
2023-01-27T18:50:25.029Z,-2.90
2023-01-27T18:52:51.961Z,-2.86
2023-01-27T18:55:22.484Z,-2.81
2023-01-27T18:57:53.646Z,-2.78
2023-01-27T19:00:38.585Z,-2.72
2023-01-27T19:03:07.205Z,-2.70
2023-01-27T19:05:35.714Z,-2.68
2023-01-27T19:08:02.949Z,-2.65
2023-01-27T19:10:31.968Z,-2.63
2023-01-27T19:13:00.110Z,-2.62
2023-01-27T19:15:28.443Z,-2.61
2023-01-27T19:17:56.504Z,-2.59
2023-01-27T19:20:25.144Z,-2.58
2023-01-27T19:22:52.773Z,-2.58
2023-01-27T19:25:20.142Z,-2.58
2023-01-27T19:27:49.795Z,-2.58
2023-01-27T19:30:19.534Z,-2.58
2023-01-27T19:32:46.067Z,-2.58
2023-01-27T19:35:13.485Z,-2.59
2023-01-27T19:37:41.868Z,-2.60
2023-01-27T19:40:16.116Z,-2.62
2023-01-27T19:42:43.895Z,-2.64
2023-01-27T19:45:16.210Z,-2.64
2023-01-27T19:47:46.270Z,-2.65
2023-01-27T19:50:18.851Z,-2.66
2023-01-27T19:52:46.123Z,-2.66
2023-01-27T19:55:14.534Z,-2.66
2023-01-27T19:57:42.527Z,-2.68
2023-01-27T20:00:23.740Z,-2.69
2023-01-27T20:02:50.402Z,-2.71
2023-01-27T20:05:17.359Z,-2.73
2023-01-27T20:07:44.524Z,-2.75
2023-01-27T20:10:32.089Z,-2.78
2023-01-27T20:13:00.468Z,-2.79
2023-01-27T20:15:29.281Z,-2.80
2023-01-27T20:17:56.714Z,-2.80
2023-01-27T20:20:24.338Z,-2.80
2023-01-27T20:22:52.222Z,-2.81
2023-01-27T20:25:20.590Z,-2.81
2023-01-27T20:27:49.602Z,-2.83
2023-01-27T20:30:17.943Z,-2.84
2023-01-27T20:32:45.166Z,-2.85
2023-01-27T20:35:13.145Z,-2.86
2023-01-27T20:37:41.000Z,-2.89
2023-01-27T20:40:09.232Z,-2.91
2023-01-27T20:42:38.618Z,-2.94
2023-01-27T20:45:05.662Z,-2.96
2023-01-27T20:47:32.621Z,-2.98
2023-01-27T20:50:00.727Z,-2.99
2023-01-27T20:52:27.824Z,-2.99
2023-01-27T20:54:54.477Z,-2.99
2023-01-27T20:57:23.469Z,-3.00
2023-01-27T20:59:50.371Z,-3.02
2023-01-27T21:02:17.063Z,-3.02
2023-01-27T21:04:44.059Z,-3.04
2023-01-27T21:07:10.860Z,-3.05
2023-01-27T21:09:37.536Z,-3.07
2023-01-27T21:12:04.403Z,-3.10
2023-01-27T21:14:33.437Z,-3.12
2023-01-27T21:17:00.292Z,-3.13
2023-01-27T21:19:26.950Z,-3.16
2023-01-27T21:21:53.734Z,-3.18
2023-01-27T21:24:20.445Z,-3.20
2023-01-27T21:26:47.363Z,-3.23
2023-01-27T21:29:14.162Z,-3.25
2023-01-27T21:31:41.238Z,-3.27
2023-01-27T21:34:10.328Z,-3.29
2023-01-27T21:36:37.276Z,-3.30
2023-01-27T21:39:04.476Z,-3.32
2023-01-27T21:41:50.330Z,-3.35
2023-01-27T21:44:40.303Z,-3.37
2023-01-27T21:47:08.680Z,-3.40
2023-01-27T21:49:56.944Z,-3.44
2023-01-27T21:52:25.123Z,-3.47
2023-01-27T21:54:51.990Z,-3.49
2023-01-27T21:57:18.652Z,-3.51
2023-01-27T21:59:45.397Z,-3.52
2023-01-27T22:02:15.553Z,-3.54
2023-01-27T22:04:42.643Z,-3.56
2023-01-27T22:07:10.837Z,-3.58
2023-01-27T22:09:38.240Z,-3.60
2023-01-27T22:12:05.926Z,-3.61
2023-01-27T22:14:33.576Z,-3.63
2023-01-27T22:17:00.427Z,-3.65
2023-01-27T22:19:27.252Z,-3.68
2023-01-27T22:21:54.776Z,-3.71
2023-01-27T22:24:24.715Z,-3.74
2023-01-27T22:26:51.364Z,-3.76
2023-01-27T22:29:18.275Z,-3.78
2023-01-27T22:31:44.824Z,-3.80
2023-01-27T22:34:11.605Z,-3.83
2023-01-27T22:36:38.390Z,-3.86
2023-01-27T22:39:04.983Z,-3.87
2023-01-27T22:41:32.518Z,-3.88
2023-01-27T22:43:59.363Z,-3.90
2023-01-27T22:46:26.119Z,-3.91
2023-01-27T22:48:54.991Z,-3.93
2023-01-27T22:51:21.863Z,-3.93
2023-01-27T22:53:48.533Z,-3.94
2023-01-27T22:56:15.922Z,-3.96
2023-01-27T22:58:42.673Z,-3.97
2023-01-27T23:01:09.392Z,-4.00
2023-01-27T23:03:36.085Z,-4.02
2023-01-27T23:06:04.498Z,-4.03
2023-01-27T23:08:32.769Z,-4.05
2023-01-27T23:11:00.932Z,-4.06
2023-01-27T23:13:28.978Z,-4.07
2023-01-27T23:15:56.391Z,-4.08
2023-01-27T23:18:23.830Z,-4.09
2023-01-27T23:20:50.653Z,-4.11
2023-01-27T23:23:18.691Z,-4.13
2023-01-27T23:25:46.941Z,-4.16
2023-01-27T23:28:17.137Z,-4.18
2023-01-27T23:30:47.572Z,-4.20
2023-01-27T23:33:16.697Z,-4.22
2023-01-27T23:35:43.551Z,-4.24
2023-01-27T23:38:22.711Z,-4.27
2023-01-27T23:40:53.955Z,-4.31
2023-01-27T23:43:21.724Z,-4.34
2023-01-27T23:45:52.186Z,-4.36
2023-01-27T23:48:19.545Z,-4.37
2023-01-27T23:50:46.283Z,-4.39
2023-01-27T23:53:13.251Z,-4.42
2023-01-27T23:55:39.849Z,-4.45
2023-01-27T23:58:06.674Z,-4.47
